createdAt,value
2022-08-03T00:01:49.260Z,101672.53
2022-08-03T00:04:16.133Z,101675.22
2022-08-03T00:06:42.749Z,101675.22
2022-08-03T00:09:09.349Z,101672.53
2022-08-03T00:11:36.637Z,101669.19
2022-08-03T00:14:05.179Z,101674.56
2022-08-03T00:16:31.816Z,101669.34
2022-08-03T00:18:58.402Z,101669.53
2022-08-03T00:21:27.470Z,101673.91
2022-08-03T00:23:53.999Z,101671.22
2022-08-03T00:26:21.945Z,101671.22
2022-08-03T00:28:49.539Z,101671.41
2022-08-03T00:31:16.109Z,101667.03
2022-08-03T00:33:58.920Z,101670.75
2022-08-03T00:36:27.307Z,101668.22
2022-08-03T00:38:53.821Z,101668.41
2022-08-03T00:41:20.463Z,101669.25
2022-08-03T00:43:47.755Z,101658.69
2022-08-03T00:46:20.553Z,101675.69
2022-08-03T00:48:47.255Z,101673.63
2022-08-03T00:51:13.886Z,101670.09
2022-08-03T00:53:40.801Z,101661.16
2022-08-03T00:56:07.473Z,101660.31
2022-08-03T00:58:34.050Z,101661.16
2022-08-03T01:01:00.714Z,101659.22
2022-08-03T01:03:27.359Z,101661.44
2022-08-03T01:06:11.812Z,101653.06
2022-08-03T01:08:59.412Z,101649.91
2022-08-03T01:12:00.188Z,101653.81
2022-08-03T01:14:32.541Z,101643.75
2022-08-03T01:17:03.781Z,101644.97
2022-08-03T01:19:36.259Z,101643.13
2022-08-03T01:22:18.050Z,101644.16
2022-08-03T01:24:56.746Z,101637.25
2022-08-03T01:27:29.493Z,101637.09
2022-08-03T01:30:01.698Z,101638.94
2022-08-03T01:32:58.630Z,101632.06
2022-08-03T01:35:54.372Z,101643.84
2022-08-03T01:38:28.852Z,101638.81
2022-08-03T01:40:57.120Z,101639.84
2022-08-03T01:44:27.263Z,101639.00
2022-08-03T01:46:17.258Z,101630.84
2022-08-03T01:48:46.202Z,101631.19
2022-08-03T01:51:15.589Z,101630.72
2022-08-03T01:53:44.992Z,101625.53
2022-08-03T01:56:13.355Z,101631.72
2022-08-03T01:58:41.471Z,101627.19
2022-08-03T02:01:10.321Z,101622.63
2022-08-03T02:04:00.903Z,101621.63
2022-08-03T02:07:00.791Z,101616.22
2022-08-03T02:09:19.581Z,101624.13
2022-08-03T02:11:47.141Z,101619.75
2022-08-03T02:14:15.356Z,101615.22
2022-08-03T02:16:43.818Z,101619.09
2022-08-03T02:19:11.820Z,101624.31
2022-08-03T02:21:56.392Z,101622.47
2022-08-03T02:24:25.855Z,101620.78
2022-08-03T02:26:56.053Z,101617.47
2022-08-03T02:29:38.750Z,101618.84
2022-08-03T02:32:12.547Z,101620.03
2022-08-03T02:34:42.336Z,101620.75
2022-08-03T02:37:11.663Z,101611.88
2022-08-03T02:39:42.301Z,101605.84
2022-08-03T02:42:13.731Z,101602.13
2022-08-03T02:44:47.565Z,101593.03
2022-08-03T02:47:15.683Z,101601.91
2022-08-03T02:49:51.645Z,101600.06
2022-08-03T02:52:21.829Z,101601.09
2022-08-03T02:54:51.181Z,101601.09
2022-08-03T02:57:19.942Z,101601.72
2022-08-03T02:59:47.290Z,101594.66
2022-08-03T03:02:15.881Z,101596.53
2022-08-03T03:05:50.953Z,101597.19
2022-08-03T03:07:31.485Z,101588.94
2022-08-03T03:10:14.361Z,101600.72
2022-08-03T03:12:42.550Z,101595.06
2022-08-03T03:15:10.351Z,101595.25
2022-08-03T03:17:37.607Z,101595.25
2022-08-03T03:20:05.884Z,101585.50
2022-08-03T03:22:34.286Z,101593.38
2022-08-03T03:25:01.963Z,101602.13
2022-08-03T03:27:28.542Z,101599.22
2022-08-03T03:29:57.822Z,101594.66
2022-08-03T03:32:26.303Z,101593.84
2022-08-03T03:34:54.184Z,101601.09
2022-08-03T03:37:20.733Z,101595.91
2022-08-03T03:39:47.332Z,101595.41
2022-08-03T03:42:14.283Z,101605.34
2022-08-03T03:44:41.026Z,101594.59
2022-08-03T03:47:07.586Z,101600.97
2022-08-03T03:49:34.492Z,101599.13
2022-08-03T03:52:01.094Z,101598.28
2022-08-03T03:54:43.044Z,101597.44
2022-08-03T03:57:12.898Z,101594.94
2022-08-03T03:59:41.624Z,101598.28
2022-08-03T04:02:09.651Z,101594.75
2022-08-03T04:04:55.783Z,101592.06
2022-08-03T04:07:42.382Z,101602.31
2022-08-03T04:10:43.751Z,101598.78
2022-08-03T04:13:14.780Z,101600.50
2022-08-03T04:15:42.131Z,101608.72
2022-08-03T04:18:13.849Z,101601.66
2022-08-03T04:20:47.705Z,101604.75
2022-08-03T04:23:16.543Z,101603.06
2022-08-03T04:25:44.014Z,101602.22
2022-08-03T04:28:31.310Z,101599.38
2022-08-03T04:30:59.761Z,101600.19
2022-08-03T04:33:29.377Z,101607.63
2022-08-03T04:36:02.934Z,101599.53
2022-08-03T04:38:32.907Z,101613.19
2022-08-03T04:41:01.077Z,101605.09
2022-08-03T04:43:28.969Z,101611.50
2022-08-03T04:45:57.241Z,101620.78
2022-08-03T04:48:24.545Z,101623.28
2022-08-03T04:50:51.809Z,101622.25
2022-08-03T04:53:18.456Z,101625.13
2022-08-03T04:55:46.467Z,101630.53
2022-08-03T04:58:13.050Z,101635.72
2022-08-03T05:00:39.570Z,101626.81
2022-08-03T05:03:20.363Z,101626.81
2022-08-03T05:06:01.792Z,101624.13
2022-08-03T05:08:29.081Z,101630.34
2022-08-03T05:10:59.345Z,101630.53
2022-08-03T05:13:26.187Z,101644.81
2022-08-03T05:15:52.712Z,101636.91
2022-08-03T05:18:19.311Z,101639.59
2022-08-03T05:20:45.853Z,101641.28
2022-08-03T05:23:12.492Z,101642.28
2022-08-03T05:25:39.429Z,101642.13
2022-08-03T05:28:06.045Z,101640.09
2022-08-03T05:30:33.968Z,101638.41
2022-08-03T05:33:04.104Z,101639.91
2022-08-03T05:35:57.366Z,101634.53
2022-08-03T05:38:23.761Z,101640.75
2022-08-03T05:40:57.672Z,101637.03
2022-08-03T05:43:41.712Z,101636.66
2022-08-03T05:46:12.144Z,101637.19
2022-08-03T05:48:39.987Z,101638.66
2022-08-03T05:51:07.774Z,101635.44
2022-08-03T05:53:34.816Z,101630.91
2022-08-03T05:56:13.101Z,101642.97
2022-08-03T05:58:47.757Z,101633.19
2022-08-03T06:01:16.002Z,101631.72
2022-08-03T06:03:42.794Z,101631.53
2022-08-03T06:06:09.585Z,101631.34
2022-08-03T06:08:36.154Z,101632.84
2022-08-03T06:11:03.655Z,101636.19
2022-08-03T06:13:30.323Z,101630.81
2022-08-03T06:15:56.820Z,101642.91
2022-08-03T06:18:24.651Z,101637.34
2022-08-03T06:20:52.293Z,101637.13
2022-08-03T06:23:19.307Z,101639.19
2022-08-03T06:25:46.146Z,101641.69
2022-08-03T06:28:35.244Z,101635.47
2022-08-03T06:31:01.027Z,101645.69
2022-08-03T06:34:31.385Z,101645.31
2022-08-03T06:36:14.382Z,101640.78
2022-08-03T06:38:40.983Z,101632.34
2022-08-03T06:41:07.478Z,101640.22
2022-08-03T06:43:37.618Z,101639.22
2022-08-03T06:46:05.499Z,101653.13
2022-08-03T06:48:32.407Z,101653.13
2022-08-03T06:50:59.354Z,101645.69
2022-08-03T06:53:26.363Z,101649.22
2022-08-03T06:55:54.954Z,101655.47
2022-08-03T06:58:22.057Z,101639.66
2022-08-03T07:00:48.614Z,101651.38
2022-08-03T07:03:15.206Z,101650.19
2022-08-03T07:05:43.502Z,101649.78
2022-08-03T07:08:10.190Z,101643.22
2022-08-03T07:10:37.187Z,101648.41
2022-08-03T07:13:04.359Z,101656.13
2022-08-03T07:15:54.384Z,101654.94
2022-08-03T07:18:17.708Z,101660.94
2022-08-03T07:20:54.912Z,101656.22
2022-08-03T07:23:21.422Z,101663.13
2022-08-03T07:25:48.005Z,101661.09
2022-08-03T07:28:14.521Z,101673.38
2022-08-03T07:30:41.046Z,101674.84
2022-08-03T07:33:07.578Z,101676.97
2022-08-03T07:35:34.113Z,101675.78
2022-08-03T07:38:00.769Z,101672.72
2022-08-03T07:40:28.196Z,101677.34
2022-08-03T07:42:58.379Z,101680.50
2022-08-03T07:45:26.487Z,101681.16
2022-08-03T07:47:53.817Z,101685.53
2022-08-03T07:50:21.655Z,101687.03
2022-08-03T07:52:48.384Z,101687.69
2022-08-03T07:55:16.052Z,101682.72
2022-08-03T07:57:42.729Z,101690.44
2022-08-03T08:00:17.832Z,101686.53
2022-08-03T08:02:45.112Z,101697.31
2022-08-03T08:05:12.653Z,101687.38
2022-08-03T08:07:40.315Z,101704.75
2022-08-03T08:10:10.023Z,101696.84
2022-08-03T08:12:38.686Z,101696.66
2022-08-03T08:15:06.199Z,101691.09
2022-08-03T08:17:44.975Z,101695.94
2022-08-03T08:20:18.212Z,101686.25
2022-08-03T08:23:01.275Z,101693.78
2022-08-03T08:25:29.205Z,101699.59
2022-08-03T08:28:22.392Z,101692.16
2022-08-03T08:30:42.487Z,101695.38
2022-08-03T08:33:15.726Z,101689.59
2022-08-03T08:35:50.389Z,101705.66
2022-08-03T08:38:16.899Z,101705.09
2022-08-03T08:40:43.514Z,101697.28
2022-08-03T08:43:10.069Z,101697.28
2022-08-03T08:45:37.598Z,101695.84
2022-08-03T08:48:08.232Z,101698.19
2022-08-03T08:50:37.556Z,101688.88
2022-08-03T08:53:09.889Z,101699.91
2022-08-03T08:55:58.606Z,101696.00
2022-08-03T08:58:29.833Z,101697.94
2022-08-03T09:00:56.709Z,101695.88
2022-08-03T09:03:29.155Z,101701.34
2022-08-03T09:05:59.994Z,101693.06
2022-08-03T09:08:26.591Z,101697.41
2022-08-03T09:10:53.082Z,101694.53
2022-08-03T09:13:19.666Z,101693.31
2022-08-03T09:16:00.632Z,101696.44
2022-08-03T09:18:32.566Z,101689.84
2022-08-03T09:21:34.419Z,101700.28
2022-08-03T09:24:04.786Z,101702.41
2022-08-03T09:26:37.135Z,101701.16
2022-08-03T09:29:13.516Z,101700.13
2022-08-03T09:31:45.833Z,101702.66
2022-08-03T09:34:17.015Z,101696.03
2022-08-03T09:36:48.804Z,101692.09
2022-08-03T09:39:40.442Z,101691.91
2022-08-03T09:42:14.755Z,101700.66
2022-08-03T09:44:52.244Z,101699.41
2022-08-03T09:47:29.701Z,101697.53
2022-08-03T09:50:04.600Z,101694.66
2022-08-03T09:52:49.218Z,101700.88
2022-08-03T09:56:32.916Z,101696.97
2022-08-03T09:58:09.186Z,101698.00
2022-08-03T10:00:54.019Z,101695.94
2022-08-03T10:03:20.894Z,101702.38
2022-08-03T10:05:47.403Z,101697.41
2022-08-03T10:08:19.409Z,101701.38
2022-08-03T10:10:49.266Z,101703.69
2022-08-03T10:13:19.439Z,101711.81
2022-08-03T10:16:22.880Z,101699.97
2022-08-03T10:18:33.502Z,101709.75
2022-08-03T10:21:10.623Z,101709.34
2022-08-03T10:23:38.625Z,101703.75
2022-08-03T10:26:08.094Z,101713.53
2022-08-03T10:28:41.593Z,101707.91
2022-08-03T10:31:13.895Z,101703.56
2022-08-03T10:33:52.044Z,101706.03
2022-08-03T10:36:23.825Z,101700.63
2022-08-03T10:38:53.696Z,101689.84
2022-08-03T10:41:22.069Z,101696.91
2022-08-03T10:44:09.597Z,101703.34
2022-08-03T10:46:44.160Z,101697.09
2022-08-03T10:49:14.739Z,101694.63
2022-08-03T10:51:42.765Z,101699.00
2022-08-03T10:55:03.316Z,101698.16
2022-08-03T10:57:49.905Z,101693.78
2022-08-03T11:00:27.944Z,101691.09
2022-08-03T11:03:08.644Z,101683.81
2022-08-03T11:05:43.831Z,101685.50
2022-08-03T11:08:21.546Z,101681.13
2022-08-03T11:10:49.306Z,101684.44
2022-08-03T11:13:18.243Z,101685.25
2022-08-03T11:15:47.730Z,101682.56
2022-08-03T11:18:15.246Z,101682.56
2022-08-03T11:20:54.351Z,101676.97
2022-08-03T11:24:04.020Z,101687.78
2022-08-03T11:26:28.312Z,101682.56
2022-08-03T11:29:30.844Z,101693.19
2022-08-03T11:31:57.669Z,101695.88
2022-08-03T11:34:24.665Z,101697.75
2022-08-03T11:37:21.580Z,101686.53
2022-08-03T11:39:50.308Z,101689.06
2022-08-03T11:42:23.343Z,101674.50
2022-08-03T11:44:54.033Z,101681.59
2022-08-03T11:47:22.030Z,101682.22
2022-08-03T11:49:50.251Z,101673.09
2022-08-03T11:52:17.804Z,101679.34
2022-08-03T11:54:45.106Z,101673.94
2022-08-03T11:57:11.915Z,101674.56
2022-08-03T11:59:38.927Z,101672.69
2022-08-03T12:02:13.442Z,101676.06
2022-08-03T12:05:07.779Z,101692.06
2022-08-03T12:08:03.827Z,101686.84
2022-08-03T12:10:21.193Z,101682.28
2022-08-03T12:12:58.835Z,101681.25
2022-08-03T12:15:27.519Z,101673.16
2022-08-03T12:17:57.698Z,101680.22
2022-08-03T12:20:34.980Z,101684.59
2022-08-03T12:23:06.668Z,101678.38
2022-08-03T12:25:39.062Z,101681.91
2022-08-03T12:28:36.480Z,101680.69
2022-08-03T12:30:54.987Z,101678.81
2022-08-03T12:33:27.637Z,101670.25
2022-08-03T12:36:09.561Z,101668.41
2022-08-03T12:38:39.634Z,101658.44
2022-08-03T12:41:13.620Z,101660.94
2022-08-03T12:43:49.936Z,101669.69
2022-08-03T12:46:18.530Z,101659.91
2022-08-03T12:49:11.354Z,101655.13
2022-08-03T12:51:57.753Z,101660.34
2022-08-03T12:54:34.482Z,101663.88
2022-08-03T12:57:03.992Z,101659.13
2022-08-03T12:59:35.226Z,101656.41
2022-08-03T13:02:15.051Z,101655.19
2022-08-03T13:04:42.129Z,101657.66
2022-08-03T13:07:14.125Z,101657.47
2022-08-03T13:09:45.389Z,101660.81
2022-08-03T13:12:23.216Z,101662.47
2022-08-03T13:14:56.477Z,101652.31
2022-08-03T13:17:23.250Z,101656.69
2022-08-03T13:19:50.198Z,101650.88
2022-08-03T13:22:22.248Z,101647.97
2022-08-03T13:24:51.627Z,101652.94
2022-08-03T13:27:58.875Z,101655.47
2022-08-03T13:30:06.363Z,101649.00
2022-08-03T13:32:33.643Z,101653.19
2022-08-03T13:35:00.560Z,101642.16
2022-08-03T13:37:27.557Z,101648.22
2022-08-03T13:39:59.081Z,101647.19
2022-08-03T13:42:32.260Z,101649.47
2022-08-03T13:45:00.363Z,101639.28
2022-08-03T13:47:27.425Z,101644.50
2022-08-03T13:50:01.066Z,101653.06
2022-08-03T13:52:33.154Z,101653.06
2022-08-03T13:55:00.394Z,101648.28
2022-08-03T13:58:03.795Z,101647.06
2022-08-03T14:00:26.329Z,101641.41
2022-08-03T14:03:01.888Z,101646.44
2022-08-03T14:05:32.287Z,101639.97
2022-08-03T14:08:04.964Z,101642.28
2022-08-03T14:10:33.396Z,101642.28
2022-08-03T14:13:00.532Z,101641.88
2022-08-03T14:15:28.516Z,101647.09
2022-08-03T14:17:55.758Z,101645.81
2022-08-03T14:20:37.236Z,101639.38
2022-08-03T14:23:06.995Z,101643.34
2022-08-03T14:25:43.424Z,101641.28
2022-08-03T14:28:17.794Z,101644.41
2022-08-03T14:30:44.333Z,101636.91
2022-08-03T14:33:10.907Z,101624.00
2022-08-03T14:35:37.566Z,101627.34
2022-08-03T14:38:04.049Z,101633.19
2022-08-03T14:40:30.550Z,101631.94
2022-08-03T14:42:57.322Z,101647.75
2022-08-03T14:45:23.862Z,101639.22
2022-08-03T14:50:34.121Z,101625.28
2022-08-03T14:50:43.288Z,101635.69
2022-08-03T14:53:13.595Z,101635.91
2022-08-03T14:55:49.561Z,101634.47
2022-08-03T14:58:22.179Z,101637.59
2022-08-03T15:00:50.091Z,101634.47
2022-08-03T15:03:17.609Z,101621.38
2022-08-03T15:05:44.639Z,101615.75
2022-08-03T15:08:11.258Z,101632.59
2022-08-03T15:10:44.426Z,101623.22
2022-08-03T15:13:13.095Z,101634.47
2022-08-03T15:15:40.668Z,101619.69
2022-08-03T15:18:07.594Z,101614.91
2022-08-03T15:20:49.628Z,101621.75
2022-08-03T15:23:17.844Z,101614.88
2022-08-03T15:26:03.664Z,101611.13
2022-08-03T15:28:32.782Z,101610.72
2022-08-03T15:31:00.757Z,101619.47
2022-08-03T15:33:28.110Z,101605.91
2022-08-03T15:35:54.758Z,101605.72
2022-08-03T15:38:26.162Z,101619.66
2022-08-03T15:40:54.543Z,101623.00
2022-08-03T15:43:22.109Z,101612.97
2022-08-03T15:45:51.892Z,101615.28
2022-08-03T15:48:26.532Z,101609.84
2022-08-03T15:50:54.534Z,101605.28
2022-08-03T15:53:21.144Z,101606.94
2022-08-03T15:55:47.779Z,101607.78
2022-08-03T15:59:09.396Z,101611.94
2022-08-03T16:01:02.246Z,101601.94
2022-08-03T16:03:34.289Z,101607.13
2022-08-03T16:06:06.076Z,101604.19
2022-08-03T16:08:33.198Z,101610.47
2022-08-03T16:11:00.901Z,101612.97
2022-08-03T16:14:12.356Z,101600.88
2022-08-03T16:16:14.392Z,101599.00
2022-08-03T16:18:41.945Z,101599.81
2022-08-03T16:21:08.467Z,101601.94
2022-08-03T16:23:40.326Z,101611.72
2022-08-03T16:26:10.070Z,101604.41
2022-08-03T16:28:38.152Z,101602.31
2022-08-03T16:31:06.170Z,101601.28
2022-08-03T16:33:33.444Z,101598.34
2022-08-03T16:36:00.026Z,101602.75
2022-08-03T16:38:27.317Z,101601.47
2022-08-03T16:40:53.840Z,101596.06
2022-08-03T16:43:22.395Z,101593.97
2022-08-03T16:45:49.328Z,101587.50
2022-08-03T16:48:17.673Z,101602.50
2022-08-03T16:50:44.657Z,101593.53
2022-08-03T16:53:16.257Z,101594.34
2022-08-03T16:55:51.989Z,101587.47
2022-08-03T16:58:41.450Z,101592.69
2022-08-03T17:01:22.553Z,101587.88
2022-08-03T17:04:02.789Z,101580.78
2022-08-03T17:06:34.991Z,101586.63
2022-08-03T17:09:09.149Z,101582.88
2022-08-03T17:11:38.835Z,101578.50
2022-08-03T17:14:13.722Z,101580.16
2022-08-03T17:16:51.949Z,101576.81
2022-08-03T17:19:23.326Z,101582.41
2022-08-03T17:22:10.621Z,101582.41
2022-08-03T17:24:42.088Z,101585.97
2022-08-03T17:28:41.834Z,101584.91
2022-08-03T17:30:05.435Z,101582.00
2022-08-03T17:32:42.416Z,101591.16
2022-08-03T17:35:10.435Z,101589.28
2022-08-03T17:37:57.846Z,101584.69
2022-08-03T17:40:23.863Z,101583.66
2022-08-03T17:42:51.240Z,101594.91
2022-08-03T17:45:17.948Z,101587.63
2022-08-03T17:47:45.457Z,101586.78
2022-08-03T17:50:28.746Z,101593.88
2022-08-03T17:53:23.845Z,101594.72
2022-08-03T17:56:04.872Z,101589.28
2022-08-03T17:59:01.526Z,101591.16
2022-08-03T18:02:22.251Z,101592.00
2022-08-03T18:05:16.421Z,101587.41
2022-08-03T18:07:59.519Z,101592.19
2022-08-03T18:10:35.957Z,101595.13
2022-08-03T18:13:24.112Z,101593.47
2022-08-03T18:16:02.918Z,101590.75
2022-08-03T18:18:36.262Z,101598.88
2022-08-03T18:21:09.285Z,101591.78
2022-08-03T18:23:44.327Z,101593.88
2022-08-03T18:26:12.168Z,101587.63
2022-08-03T18:28:39.709Z,101582.19
2022-08-03T18:31:09.828Z,101583.25
2022-08-03T18:34:18.021Z,101587.00
2022-08-03T18:39:13.405Z,101585.78
2022-08-03T18:41:46.357Z,101591.84
2022-08-03T18:44:53.105Z,101582.25
2022-08-03T18:47:23.146Z,101585.16
2022-08-03T18:50:23.616Z,101581.00
2022-08-03T18:52:59.014Z,101580.16
2022-08-03T18:55:38.461Z,101589.34
2022-08-03T18:58:28.799Z,101587.69
2022-08-03T19:01:58.604Z,101589.97
2022-08-03T19:04:28.739Z,101587.50
2022-08-03T19:07:02.725Z,101588.75
2022-08-03T19:09:47.971Z,101591.69
2022-08-03T19:12:33.917Z,101597.31
2022-08-03T19:15:10.394Z,101591.28
2022-08-03T19:17:52.634Z,101595.03
2022-08-03T19:20:25.835Z,101591.09
2022-08-03T19:22:53.835Z,101592.13
2022-08-03T19:28:08.965Z,101594.84
2022-08-03T19:30:40.127Z,101600.47
2022-08-03T19:33:12.250Z,101597.09
2022-08-03T19:35:49.808Z,101602.75
2022-08-03T19:38:28.465Z,101600.44
2022-08-03T19:41:02.719Z,101601.50
2022-08-03T19:43:52.850Z,101602.53
2022-08-03T19:46:22.311Z,101602.78
2022-08-03T19:49:01.102Z,101604.03
2022-08-03T19:52:02.307Z,101597.97
2022-08-03T19:54:29.402Z,101596.72
2022-08-03T19:56:58.343Z,101599.00
2022-08-03T19:59:26.384Z,101603.59
2022-08-03T20:01:53.098Z,101594.03
2022-08-03T20:04:21.430Z,101591.75
2022-08-03T20:06:49.772Z,101599.25
2022-08-03T20:09:18.568Z,101598.41
2022-08-03T20:11:47.721Z,101595.06
2022-08-03T20:14:20.839Z,101591.53
2022-08-03T20:16:53.566Z,101590.06
2022-08-03T20:19:20.359Z,101583.00
2022-08-03T20:21:48.630Z,101583.81
2022-08-03T20:24:44.770Z,101584.06
2022-08-03T20:27:20.456Z,101585.50
2022-08-03T20:30:06.936Z,101583.84
2022-08-03T20:32:35.363Z,101575.31
2022-08-03T20:35:01.863Z,101581.56
2022-08-03T20:37:30.450Z,101579.88
2022-08-03T20:39:57.129Z,101580.72
2022-08-03T20:42:24.003Z,101580.72
2022-08-03T20:45:06.878Z,101587.81
2022-08-03T20:47:50.968Z,101584.88
2022-08-03T20:50:18.306Z,101584.25
2022-08-03T20:52:49.737Z,101581.56
2022-08-03T20:55:18.825Z,101572.78
2022-08-03T20:57:49.188Z,101579.22
2022-08-03T21:00:19.519Z,101571.53
2022-08-03T21:02:48.922Z,101568.00
2022-08-03T21:05:15.563Z,101568.41
2022-08-03T21:08:06.226Z,101574.44
2022-08-03T21:10:37.955Z,101575.69
2022-08-03T21:12:58.650Z,101588.03
2022-08-03T21:13:02.099Z,101597.56
2022-08-03T21:13:31.000Z,101575.28
2022-08-03T21:16:12.563Z,101571.72
2022-08-03T21:18:49.335Z,101574.22
2022-08-03T21:21:18.869Z,101563.59
2022-08-03T21:23:52.569Z,101556.13
2022-08-03T21:26:21.679Z,101559.22
2022-08-03T21:28:49.919Z,101555.47
2022-08-03T21:31:24.526Z,101558.59
2022-08-03T21:33:54.116Z,101553.63
2022-08-03T21:36:20.709Z,101557.13
2022-08-03T21:38:47.623Z,101559.38
2022-08-03T21:41:23.318Z,101552.09
2022-08-03T21:43:49.848Z,101544.84
2022-08-03T21:46:19.404Z,101543.81
2022-08-03T21:48:48.324Z,101540.28
2022-08-03T21:51:18.404Z,101540.91
2022-08-03T21:53:59.588Z,101543.97
2022-08-03T21:56:51.383Z,101542.09
2022-08-03T21:59:20.297Z,101537.28
2022-08-03T22:01:49.218Z,101536.44
2022-08-03T22:04:50.283Z,101533.31
2022-08-03T22:07:08.465Z,101527.66
2022-08-03T22:09:36.047Z,101526.63
2022-08-03T22:12:03.370Z,101520.78
2022-08-03T22:14:32.766Z,101523.69
2022-08-03T22:17:00.839Z,101518.06
2022-08-03T22:19:32.948Z,101516.44
2022-08-03T22:22:01.555Z,101522.88
2022-08-03T22:24:31.977Z,101516.03
2022-08-03T22:27:19.919Z,101523.28
2022-08-03T22:29:47.450Z,101518.72
2022-08-03T22:32:14.027Z,101516.84
2022-08-03T22:34:42.792Z,101518.50
2022-08-03T22:37:11.008Z,101524.34
2022-08-03T22:39:39.877Z,101522.25
2022-08-03T22:42:06.775Z,101524.97
2022-08-03T22:44:35.444Z,101527.47
2022-08-03T22:47:03.604Z,101517.03
2022-08-03T22:49:31.579Z,101525.56
2022-08-03T22:51:59.066Z,101515.38
2022-08-03T22:54:25.633Z,101527.81
2022-08-03T22:56:52.562Z,101523.44
2022-08-03T22:59:39.153Z,101526.97
2022-08-03T23:02:20.973Z,101524.88
2022-08-03T23:05:02.866Z,101519.06
2022-08-03T23:07:39.804Z,101521.16
2022-08-03T23:10:12.178Z,101523.25
2022-08-03T23:12:40.415Z,101521.38
2022-08-03T23:15:09.733Z,101528.25
2022-08-03T23:17:58.210Z,101534.28
2022-08-03T23:20:26.905Z,101531.78
2022-08-03T23:22:55.640Z,101534.50
2022-08-03T23:25:22.688Z,101525.94
2022-08-03T23:28:05.230Z,101531.16
2022-08-03T23:30:34.525Z,101524.91
2022-08-03T23:33:02.905Z,101522.41
2022-08-03T23:36:22.700Z,101518.88
2022-08-03T23:38:36.226Z,101520.94
2022-08-03T23:41:04.869Z,101523.84
2022-08-03T23:43:47.003Z,101521.56
2022-08-03T23:46:22.042Z,101515.31
2022-08-03T23:48:48.656Z,101517.34
2022-08-03T23:51:37.293Z,101520.91
2022-08-03T23:54:16.109Z,101517.34
2022-08-03T23:56:42.752Z,101523.59
2022-08-03T23:59:21.814Z,101520.72
